sensor_id;sensor_type;location;lat;lon;timestamp;P1;durP1;ratioP1;P2;durP2;ratioP2
72209;SDS011;60113;48.762;12.302;2022-09-30T00:01:33;12.02;;;8.13;;
72209;SDS011;60113;48.762;12.302;2022-09-30T00:04:00;19.13;;;8.43;;
72209;SDS011;60113;48.762;12.302;2022-09-30T00:06:27;11.63;;;8.15;;
72209;SDS011;60113;48.762;12.302;2022-09-30T00:08:54;15.70;;;8.57;;
72209;SDS011;60113;48.762;12.302;2022-09-30T00:11:27;18.30;;;8.25;;
72209;SDS011;60113;48.762;12.302;2022-09-30T00:13:55;13.32;;;8.20;;
72209;SDS011;60113;48.762;12.302;2022-09-30T00:16:22;13.98;;;8.38;;
72209;SDS011;60113;48.762;12.302;2022-09-30T00:18:49;18.70;;;8.57;;
72209;SDS011;60113;48.762;12.302;2022-09-30T00:21:15;21.23;;;9.60;;
72209;SDS011;60113;48.762;12.302;2022-09-30T00:23:42;32.88;;;10.35;;
72209;SDS011;60113;48.762;12.302;2022-09-30T00:26:18;18.58;;;9.60;;
72209;SDS011;60113;48.762;12.302;2022-09-30T00:28:48;19.50;;;10.77;;
72209;SDS011;60113;48.762;12.302;2022-09-30T00:31:19;18.80;;;10.45;;
72209;SDS011;60113;48.762;12.302;2022-09-30T00:33:47;23.10;;;10.25;;
72209;SDS011;60113;48.762;12.302;2022-09-30T00:39:10;18.58;;;9.05;;
72209;SDS011;60113;48.762;12.302;2022-09-30T00:41:41;16.60;;;9.85;;
72209;SDS011;60113;48.762;12.302;2022-09-30T00:50:00;26.38;;;13.20;;
72209;SDS011;60113;48.762;12.302;2022-09-30T00:52:38;25.63;;;13.15;;
72209;SDS011;60113;48.762;12.302;2022-09-30T00:55:06;19.90;;;11.50;;
72209;SDS011;60113;48.762;12.302;2022-09-30T00:57:41;12.77;;;8.20;;
72209;SDS011;60113;48.762;12.302;2022-09-30T01:00:07;13.88;;;7.30;;
72209;SDS011;60113;48.762;12.302;2022-09-30T01:02:33;10.80;;;8.30;;
72209;SDS011;60113;48.762;12.302;2022-09-30T01:04:59;15.50;;;8.35;;
72209;SDS011;60113;48.762;12.302;2022-09-30T01:07:24;9.57;;;6.85;;
72209;SDS011;60113;48.762;12.302;2022-09-30T01:09:50;11.82;;;8.77;;
72209;SDS011;60113;48.762;12.302;2022-09-30T01:12:18;15.70;;;9.63;;
72209;SDS011;60113;48.762;12.302;2022-09-30T01:14:47;18.33;;;9.23;;
72209;SDS011;60113;48.762;12.302;2022-09-30T01:23:21;17.83;;;9.40;;
72209;SDS011;60113;48.762;12.302;2022-09-30T01:26:15;13.95;;;8.55;;
72209;SDS011;60113;48.762;12.302;2022-09-30T01:32:14;20.63;;;9.18;;
72209;SDS011;60113;48.762;12.302;2022-09-30T01:40:17;12.10;;;7.32;;
72209;SDS011;60113;48.762;12.302;2022-09-30T01:42:53;14.80;;;8.00;;
72209;SDS011;60113;48.762;12.302;2022-09-30T01:45:31;13.75;;;9.27;;
72209;SDS011;60113;48.762;12.302;2022-09-30T01:48:54;11.98;;;9.00;;
72209;SDS011;60113;48.762;12.302;2022-09-30T01:51:16;15.38;;;9.93;;
72209;SDS011;60113;48.762;12.302;2022-09-30T01:54:03;18.98;;;9.23;;
72209;SDS011;60113;48.762;12.302;2022-09-30T01:56:42;14.43;;;9.45;;
72209;SDS011;60113;48.762;12.302;2022-09-30T01:59:14;16.98;;;8.27;;
72209;SDS011;60113;48.762;12.302;2022-09-30T02:01:52;11.23;;;8.90;;
72209;SDS011;60113;48.762;12.302;2022-09-30T02:04:32;11.85;;;8.25;;
72209;SDS011;60113;48.762;12.302;2022-09-30T02:07:04;19.10;;;8.85;;
72209;SDS011;60113;48.762;12.302;2022-09-30T02:09:44;15.88;;;8.65;;
72209;SDS011;60113;48.762;12.302;2022-09-30T02:12:18;12.70;;;9.75;;
72209;SDS011;60113;48.762;12.302;2022-09-30T02:14:50;18.08;;;10.27;;
72209;SDS011;60113;48.762;12.302;2022-09-30T02:17:28;19.63;;;10.43;;
72209;SDS011;60113;48.762;12.302;2022-09-30T02:20:05;21.65;;;11.48;;
72209;SDS011;60113;48.762;12.302;2022-09-30T02:22:39;18.45;;;11.23;;
72209;SDS011;60113;48.762;12.302;2022-09-30T02:25:18;18.70;;;9.73;;
72209;SDS011;60113;48.762;12.302;2022-09-30T02:27:52;20.98;;;11.82;;
72209;SDS011;60113;48.762;12.302;2022-09-30T02:30:22;18.92;;;11.05;;
72209;SDS011;60113;48.762;12.302;2022-09-30T02:32:52;11.82;;;8.70;;
72209;SDS011;60113;48.762;12.302;2022-09-30T02:35:34;18.48;;;10.25;;
72209;SDS011;60113;48.762;12.302;2022-09-30T02:38:38;20.40;;;11.63;;
72209;SDS011;60113;48.762;12.302;2022-09-30T02:41:14;23.88;;;12.30;;
72209;SDS011;60113;48.762;12.302;2022-09-30T02:43:45;16.63;;;11.60;;
72209;SDS011;60113;48.762;12.302;2022-09-30T02:52:26;20.00;;;9.98;;
72209;SDS011;60113;48.762;12.302;2022-09-30T02:57:52;21.55;;;10.00;;
72209;SDS011;60113;48.762;12.302;2022-09-30T03:00:34;18.38;;;10.65;;
72209;SDS011;60113;48.762;12.302;2022-09-30T03:03:02;20.02;;;11.30;;
72209;SDS011;60113;48.762;12.302;2022-09-30T03:05:31;22.60;;;10.07;;
72209;SDS011;60113;48.762;12.302;2022-09-30T03:07:57;18.77;;;10.13;;
72209;SDS011;60113;48.762;12.302;2022-09-30T03:10:23;25.33;;;11.23;;
72209;SDS011;60113;48.762;12.302;2022-09-30T03:15:49;18.95;;;11.35;;
72209;SDS011;60113;48.762;12.302;2022-09-30T03:21:05;21.10;;;12.98;;
72209;SDS011;60113;48.762;12.302;2022-09-30T03:26:46;22.15;;;10.73;;
72209;SDS011;60113;48.762;12.302;2022-09-30T03:31:41;13.32;;;9.52;;
72209;SDS011;60113;48.762;12.302;2022-09-30T03:35:20;22.30;;;9.85;;
72209;SDS011;60113;48.762;12.302;2022-09-30T03:37:32;20.23;;;9.85;;
72209;SDS011;60113;48.762;12.302;2022-09-30T03:40:02;19.08;;;10.07;;
72209;SDS011;60113;48.762;12.302;2022-09-30T03:42:36;20.42;;;10.70;;
72209;SDS011;60113;48.762;12.302;2022-09-30T03:45:20;20.27;;;11.50;;
72209;SDS011;60113;48.762;12.302;2022-09-30T03:47:54;28.80;;;12.88;;
72209;SDS011;60113;48.762;12.302;2022-09-30T03:50:23;32.05;;;15.95;;
72209;SDS011;60113;48.762;12.302;2022-09-30T03:52:51;32.78;;;16.83;;
72209;SDS011;60113;48.762;12.302;2022-09-30T03:55:17;26.20;;;16.48;;
72209;SDS011;60113;48.762;12.302;2022-09-30T03:57:44;30.17;;;16.77;;
72209;SDS011;60113;48.762;12.302;2022-09-30T04:00:10;30.70;;;15.00;;
72209;SDS011;60113;48.762;12.302;2022-09-30T04:02:37;33.17;;;15.55;;
72209;SDS011;60113;48.762;12.302;2022-09-30T04:05:03;30.75;;;18.13;;
72209;SDS011;60113;48.762;12.302;2022-09-30T04:07:30;33.92;;;15.57;;
72209;SDS011;60113;48.762;12.302;2022-09-30T04:09:55;32.88;;;17.58;;
72209;SDS011;60113;48.762;12.302;2022-09-30T04:12:25;29.30;;;16.60;;
72209;SDS011;60113;48.762;12.302;2022-09-30T04:14:51;29.42;;;16.50;;
72209;SDS011;60113;48.762;12.302;2022-09-30T04:17:16;33.13;;;17.38;;
72209;SDS011;60113;48.762;12.302;2022-09-30T04:19:42;29.65;;;16.42;;
72209;SDS011;60113;48.762;12.302;2022-09-30T04:22:08;31.83;;;15.45;;
72209;SDS011;60113;48.762;12.302;2022-09-30T04:24:34;30.98;;;16.60;;
72209;SDS011;60113;48.762;12.302;2022-09-30T04:27:00;29.02;;;17.58;;
72209;SDS011;60113;48.762;12.302;2022-09-30T04:29:26;34.53;;;16.52;;
72209;SDS011;60113;48.762;12.302;2022-09-30T04:31:52;36.03;;;18.52;;
72209;SDS011;60113;48.762;12.302;2022-09-30T04:34:17;31.73;;;17.77;;
72209;SDS011;60113;48.762;12.302;2022-09-30T04:36:43;33.33;;;18.27;;
72209;SDS011;60113;48.762;12.302;2022-09-30T04:39:09;42.10;;;18.63;;
72209;SDS011;60113;48.762;12.302;2022-09-30T04:41:34;32.00;;;18.15;;
72209;SDS011;60113;48.762;12.302;2022-09-30T04:44:00;33.95;;;19.23;;
72209;SDS011;60113;48.762;12.302;2022-09-30T04:46:30;42.47;;;20.23;;
72209;SDS011;60113;48.762;12.302;2022-09-30T04:49:01;38.85;;;18.88;;
72209;SDS011;60113;48.762;12.302;2022-09-30T04:51:30;34.55;;;19.83;;
72209;SDS011;60113;48.762;12.302;2022-09-30T04:53:56;35.03;;;20.30;;
72209;SDS011;60113;48.762;12.302;2022-09-30T04:56:22;41.03;;;20.35;;
72209;SDS011;60113;48.762;12.302;2022-09-30T04:58:50;38.75;;;19.48;;
72209;SDS011;60113;48.762;12.302;2022-09-30T05:01:17;43.90;;;21.05;;
72209;SDS011;60113;48.762;12.302;2022-09-30T05:03:43;38.90;;;20.50;;
72209;SDS011;60113;48.762;12.302;2022-09-30T05:06:09;40.35;;;22.13;;
72209;SDS011;60113;48.762;12.302;2022-09-30T05:08:35;44.47;;;22.05;;
72209;SDS011;60113;48.762;12.302;2022-09-30T05:11:05;43.22;;;23.08;;
72209;SDS011;60113;48.762;12.302;2022-09-30T05:13:36;44.83;;;23.05;;
72209;SDS011;60113;48.762;12.302;2022-09-30T05:16:04;46.45;;;23.92;;
72209;SDS011;60113;48.762;12.302;2022-09-30T05:18:31;46.03;;;21.77;;
72209;SDS011;60113;48.762;12.302;2022-09-30T05:20:58;40.15;;;20.42;;
72209;SDS011;60113;48.762;12.302;2022-09-30T05:23:25;40.20;;;21.83;;
72209;SDS011;60113;48.762;12.302;2022-09-30T05:25:53;39.22;;;21.23;;
72209;SDS011;60113;48.762;12.302;2022-09-30T05:28:19;43.17;;;20.50;;
72209;SDS011;60113;48.762;12.302;2022-09-30T05:30:47;40.60;;;21.38;;
72209;SDS011;60113;48.762;12.302;2022-09-30T05:33:14;41.38;;;20.30;;
72209;SDS011;60113;48.762;12.302;2022-09-30T05:35:41;34.80;;;20.60;;
72209;SDS011;60113;48.762;12.302;2022-09-30T05:38:07;29.10;;;19.05;;
72209;SDS011;60113;48.762;12.302;2022-09-30T05:40:37;30.83;;;19.77;;
72209;SDS011;60113;48.762;12.302;2022-09-30T05:43:04;30.80;;;18.08;;
72209;SDS011;60113;48.762;12.302;2022-09-30T05:45:30;29.75;;;17.60;;
72209;SDS011;60113;48.762;12.302;2022-09-30T05:47:57;27.95;;;16.92;;
72209;SDS011;60113;48.762;12.302;2022-09-30T05:50:23;32.08;;;18.42;;
72209;SDS011;60113;48.762;12.302;2022-09-30T05:52:49;29.00;;;16.88;;
72209;SDS011;60113;48.762;12.302;2022-09-30T05:55:15;30.40;;;19.10;;
72209;SDS011;60113;48.762;12.302;2022-09-30T05:57:42;30.05;;;18.48;;
72209;SDS011;60113;48.762;12.302;2022-09-30T06:00:10;35.58;;;18.83;;
72209;SDS011;60113;48.762;12.302;2022-09-30T06:02:36;28.30;;;17.67;;
72209;SDS011;60113;48.762;12.302;2022-09-30T06:05:06;23.02;;;15.27;;
72209;SDS011;60113;48.762;12.302;2022-09-30T06:07:33;33.72;;;18.92;;
72209;SDS011;60113;48.762;12.302;2022-09-30T06:09:59;25.73;;;16.00;;
72209;SDS011;60113;48.762;12.302;2022-09-30T06:12:25;25.40;;;15.40;;
72209;SDS011;60113;48.762;12.302;2022-09-30T06:14:54;26.15;;;17.00;;
72209;SDS011;60113;48.762;12.302;2022-09-30T06:17:20;27.63;;;15.68;;
72209;SDS011;60113;48.762;12.302;2022-09-30T06:19:46;22.25;;;14.45;;
72209;SDS011;60113;48.762;12.302;2022-09-30T06:22:14;23.13;;;15.85;;
72209;SDS011;60113;48.762;12.302;2022-09-30T06:24:40;26.02;;;16.50;;
72209;SDS011;60113;48.762;12.302;2022-09-30T06:27:07;20.83;;;14.07;;
72209;SDS011;60113;48.762;12.302;2022-09-30T06:29:33;22.77;;;14.98;;
72209;SDS011;60113;48.762;12.302;2022-09-30T06:31:58;23.80;;;13.90;;
72209;SDS011;60113;48.762;12.302;2022-09-30T06:34:24;20.60;;;12.68;;
72209;SDS011;60113;48.762;12.302;2022-09-30T06:36:50;22.25;;;13.27;;
72209;SDS011;60113;48.762;12.302;2022-09-30T06:39:17;16.65;;;12.30;;
72209;SDS011;60113;48.762;12.302;2022-09-30T06:41:43;25.80;;;12.02;;
72209;SDS011;60113;48.762;12.302;2022-09-30T06:44:09;23.38;;;12.05;;
72209;SDS011;60113;48.762;12.302;2022-09-30T06:46:35;17.27;;;11.77;;
72209;SDS011;60113;48.762;12.302;2022-09-30T06:49:00;18.08;;;10.85;;
72209;SDS011;60113;48.762;12.302;2022-09-30T06:51:28;20.77;;;11.95;;
72209;SDS011;60113;48.762;12.302;2022-09-30T06:53:57;23.65;;;13.88;;
72209;SDS011;60113;48.762;12.302;2022-09-30T06:56:26;22.10;;;12.95;;
72209;SDS011;60113;48.762;12.302;2022-09-30T06:58:52;23.92;;;13.02;;
72209;SDS011;60113;48.762;12.302;2022-09-30T07:01:21;19.65;;;12.98;;
72209;SDS011;60113;48.762;12.302;2022-09-30T07:03:48;23.02;;;12.95;;
72209;SDS011;60113;48.762;12.302;2022-09-30T07:06:22;15.90;;;11.90;;
72209;SDS011;60113;48.762;12.302;2022-09-30T07:08:49;18.15;;;11.50;;
72209;SDS011;60113;48.762;12.302;2022-09-30T07:11:15;19.40;;;10.93;;
72209;SDS011;60113;48.762;12.302;2022-09-30T07:13:44;18.63;;;12.40;;
72209;SDS011;60113;48.762;12.302;2022-09-30T07:16:11;22.23;;;13.27;;
72209;SDS011;60113;48.762;12.302;2022-09-30T07:18:38;13.88;;;10.57;;
72209;SDS011;60113;48.762;12.302;2022-09-30T07:21:09;18.77;;;12.02;;
72209;SDS011;60113;48.762;12.302;2022-09-30T07:23:38;16.42;;;10.43;;
72209;SDS011;60113;48.762;12.302;2022-09-30T07:26:09;13.87;;;9.13;;
72209;SDS011;60113;48.762;12.302;2022-09-30T07:28:36;13.45;;;10.43;;
72209;SDS011;60113;48.762;12.302;2022-09-30T07:31:07;16.90;;;10.98;;
72209;SDS011;60113;48.762;12.302;2022-09-30T07:33:38;18.17;;;12.18;;
72209;SDS011;60113;48.762;12.302;2022-09-30T07:36:04;17.58;;;11.25;;
72209;SDS011;60113;48.762;12.302;2022-09-30T07:38:33;22.15;;;10.88;;
72209;SDS011;60113;48.762;12.302;2022-09-30T07:41:01;22.23;;;11.00;;
72209;SDS011;60113;48.762;12.302;2022-09-30T07:43:31;20.27;;;11.10;;
72209;SDS011;60113;48.762;12.302;2022-09-30T07:46:08;17.48;;;11.13;;
72209;SDS011;60113;48.762;12.302;2022-09-30T07:48:37;19.05;;;11.27;;
72209;SDS011;60113;48.762;12.302;2022-09-30T07:51:29;16.83;;;11.30;;
72209;SDS011;60113;48.762;12.302;2022-09-30T07:54:29;23.17;;;10.98;;
72209;SDS011;60113;48.762;12.302;2022-09-30T07:56:50;24.40;;;16.10;;
72209;SDS011;60113;48.762;12.302;2022-09-30T07:59:17;17.48;;;11.43;;
72209;SDS011;60113;48.762;12.302;2022-09-30T08:01:44;18.40;;;10.45;;
72209;SDS011;60113;48.762;12.302;2022-09-30T08:04:10;20.10;;;11.00;;
72209;SDS011;60113;48.762;12.302;2022-09-30T08:06:38;15.52;;;12.18;;
72209;SDS011;60113;48.762;12.302;2022-09-30T08:09:06;20.05;;;12.50;;
72209;SDS011;60113;48.762;12.302;2022-09-30T08:11:34;22.25;;;11.40;;
72209;SDS011;60113;48.762;12.302;2022-09-30T08:14:01;22.58;;;11.57;;
72209;SDS011;60113;48.762;12.302;2022-09-30T08:16:27;16.40;;;12.48;;
72209;SDS011;60113;48.762;12.302;2022-09-30T08:18:56;19.83;;;11.30;;
72209;SDS011;60113;48.762;12.302;2022-09-30T08:21:24;15.25;;;10.75;;
72209;SDS011;60113;48.762;12.302;2022-09-30T08:23:51;18.13;;;11.68;;
72209;SDS011;60113;48.762;12.302;2022-09-30T08:26:17;17.67;;;11.20;;
72209;SDS011;60113;48.762;12.302;2022-09-30T08:28:43;17.52;;;11.23;;
72209;SDS011;60113;48.762;12.302;2022-09-30T08:31:16;18.00;;;10.75;;
72209;SDS011;60113;48.762;12.302;2022-09-30T08:33:46;16.23;;;11.18;;
72209;SDS011;60113;48.762;12.302;2022-09-30T08:36:14;14.40;;;10.02;;
72209;SDS011;60113;48.762;12.302;2022-09-30T08:38:47;15.52;;;10.38;;
72209;SDS011;60113;48.762;12.302;2022-09-30T08:46:32;24.25;;;10.38;;
72209;SDS011;60113;48.762;12.302;2022-09-30T08:49:23;13.52;;;9.52;;
72209;SDS011;60113;48.762;12.302;2022-09-30T08:51:53;12.38;;;9.57;;
72209;SDS011;60113;48.762;12.302;2022-09-30T08:54:22;13.18;;;9.60;;
72209;SDS011;60113;48.762;12.302;2022-09-30T08:56:50;16.08;;;9.32;;
72209;SDS011;60113;48.762;12.302;2022-09-30T09:04:34;15.18;;;9.35;;
72209;SDS011;60113;48.762;12.302;2022-09-30T09:07:13;12.68;;;9.40;;
72209;SDS011;60113;48.762;12.302;2022-09-30T09:12:44;16.63;;;9.25;;
72209;SDS011;60113;48.762;12.302;2022-09-30T09:18:38;15.75;;;9.25;;
72209;SDS011;60113;48.762;12.302;2022-09-30T09:23:50;23.38;;;10.15;;
72209;SDS011;60113;48.762;12.302;2022-09-30T09:26:18;11.93;;;8.68;;
72209;SDS011;60113;48.762;12.302;2022-09-30T09:29:08;15.38;;;8.68;;
72209;SDS011;60113;48.762;12.302;2022-09-30T09:31:48;15.18;;;7.97;;
72209;SDS011;60113;48.762;12.302;2022-09-30T09:34:14;13.70;;;8.98;;
72209;SDS011;60113;48.762;12.302;2022-09-30T09:39:43;10.93;;;7.13;;
72209;SDS011;60113;48.762;12.302;2022-09-30T09:45:43;12.55;;;7.35;;
72209;SDS011;60113;48.762;12.302;2022-09-30T09:48:12;16.10;;;8.05;;
72209;SDS011;60113;48.762;12.302;2022-09-30T09:51:02;10.98;;;7.68;;
72209;SDS011;60113;48.762;12.302;2022-09-30T09:56:20;9.48;;;6.93;;
72209;SDS011;60113;48.762;12.302;2022-09-30T10:01:34;12.43;;;7.30;;
72209;SDS011;60113;48.762;12.302;2022-09-30T10:04:24;8.10;;;6.10;;
72209;SDS011;60113;48.762;12.302;2022-09-30T10:06:52;11.38;;;5.63;;
72209;SDS011;60113;48.762;12.302;2022-09-30T10:09:32;7.53;;;5.20;;
72209;SDS011;60113;48.762;12.302;2022-09-30T10:17:21;6.00;;;4.53;;
72209;SDS011;60113;48.762;12.302;2022-09-30T10:22:40;7.13;;;4.53;;
72209;SDS011;60113;48.762;12.302;2022-09-30T10:25:14;8.63;;;4.22;;
72209;SDS011;60113;48.762;12.302;2022-09-30T10:27:50;4.20;;;3.63;;
72209;SDS011;60113;48.762;12.302;2022-09-30T10:30:33;9.35;;;4.38;;
72209;SDS011;60113;48.762;12.302;2022-09-30T10:33:13;9.20;;;4.55;;
72209;SDS011;60113;48.762;12.302;2022-09-30T10:35:48;7.82;;;4.22;;
72209;SDS011;60113;48.762;12.302;2022-09-30T10:40:48;5.93;;;4.35;;
72209;SDS011;60113;48.762;12.302;2022-09-30T10:43:19;6.85;;;4.40;;
72209;SDS011;60113;48.762;12.302;2022-09-30T10:45:51;5.82;;;4.03;;
72209;SDS011;60113;48.762;12.302;2022-09-30T10:48:20;5.85;;;4.00;;
72209;SDS011;60113;48.762;12.302;2022-09-30T10:50:52;7.90;;;4.28;;
72209;SDS011;60113;48.762;12.302;2022-09-30T10:53:23;5.70;;;3.83;;
72209;SDS011;60113;48.762;12.302;2022-09-30T10:55:51;8.07;;;3.90;;
72209;SDS011;60113;48.762;12.302;2022-09-30T10:58:22;7.13;;;4.50;;
72209;SDS011;60113;48.762;12.302;2022-09-30T11:03:52;6.57;;;4.60;;
72209;SDS011;60113;48.762;12.302;2022-09-30T11:06:38;8.50;;;3.90;;
72209;SDS011;60113;48.762;12.302;2022-09-30T11:09:06;5.47;;;3.50;;
72209;SDS011;60113;48.762;12.302;2022-09-30T11:11:44;5.35;;;3.00;;
72209;SDS011;60113;48.762;12.302;2022-09-30T11:14:36;10.15;;;3.47;;
72209;SDS011;60113;48.762;12.302;2022-09-30T11:20:04;6.10;;;3.90;;
72209;SDS011;60113;48.762;12.302;2022-09-30T11:25:11;7.70;;;3.40;;
72209;SDS011;60113;48.762;12.302;2022-09-30T11:39:40;10.07;;;4.70;;
72209;SDS011;60113;48.762;12.302;2022-09-30T11:42:18;10.05;;;4.32;;
72209;SDS011;60113;48.762;12.302;2022-09-30T11:50:51;10.02;;;4.70;;
72209;SDS011;60113;48.762;12.302;2022-09-30T11:53:21;9.65;;;4.47;;
72209;SDS011;60113;48.762;12.302;2022-09-30T11:56:08;7.32;;;4.15;;
72209;SDS011;60113;48.762;12.302;2022-09-30T11:58:44;8.95;;;3.70;;
72209;SDS011;60113;48.762;12.302;2022-09-30T12:01:23;5.57;;;3.63;;
72209;SDS011;60113;48.762;12.302;2022-09-30T12:11:56;3.22;;;2.50;;
72209;SDS011;60113;48.762;12.302;2022-09-30T12:16:59;7.45;;;3.08;;
72209;SDS011;60113;48.762;12.302;2022-09-30T12:19:33;4.50;;;2.88;;
72209;SDS011;60113;48.762;12.302;2022-09-30T12:22:10;6.07;;;2.75;;
72209;SDS011;60113;48.762;12.302;2022-09-30T12:24:41;7.72;;;3.03;;
72209;SDS011;60113;48.762;12.302;2022-09-30T12:27:23;5.22;;;2.40;;
72209;SDS011;60113;48.762;12.302;2022-09-30T12:49:11;2.53;;;1.77;;
72209;SDS011;60113;48.762;12.302;2022-09-30T12:51:42;4.78;;;1.60;;
72209;SDS011;60113;48.762;12.302;2022-09-30T12:56:57;2.38;;;1.20;;
72209;SDS011;60113;48.762;12.302;2022-09-30T12:59:28;4.38;;;1.40;;
72209;SDS011;60113;48.762;12.302;2022-09-30T13:01:58;3.20;;;1.00;;
72209;SDS011;60113;48.762;12.302;2022-09-30T13:09:29;2.25;;;1.20;;
72209;SDS011;60113;48.762;12.302;2022-09-30T13:14:31;1.95;;;1.00;;
72209;SDS011;60113;48.762;12.302;2022-09-30T13:16:58;1.00;;;0.90;;
72209;SDS011;60113;48.762;12.302;2022-09-30T13:19:40;1.33;;;1.00;;
72209;SDS011;60113;48.762;12.302;2022-09-30T13:30:00;4.72;;;1.50;;
72209;SDS011;60113;48.762;12.302;2022-09-30T13:32:47;2.58;;;1.60;;
72209;SDS011;60113;48.762;12.302;2022-09-30T13:35:32;7.47;;;1.60;;
72209;SDS011;60113;48.762;12.302;2022-09-30T13:43:24;2.30;;;1.63;;
72209;SDS011;60113;48.762;12.302;2022-09-30T13:45:52;2.33;;;1.48;;
72209;SDS011;60113;48.762;12.302;2022-09-30T13:48:21;5.40;;;1.55;;
72209;SDS011;60113;48.762;12.302;2022-09-30T13:50:52;1.65;;;1.30;;
72209;SDS011;60113;48.762;12.302;2022-09-30T13:56:12;3.30;;;1.65;;
72209;SDS011;60113;48.762;12.302;2022-09-30T14:23:02;2.17;;;1.45;;
72209;SDS011;60113;48.762;12.302;2022-09-30T14:25:32;5.72;;;2.00;;
72209;SDS011;60113;48.762;12.302;2022-09-30T14:28:11;2.35;;;1.70;;
72209;SDS011;60113;48.762;12.302;2022-09-30T14:30:42;6.93;;;2.20;;
72209;SDS011;60113;48.762;12.302;2022-09-30T14:33:26;2.85;;;1.63;;
72209;SDS011;60113;48.762;12.302;2022-09-30T14:35:52;7.28;;;2.28;;
72209;SDS011;60113;48.762;12.302;2022-09-30T14:38:42;4.05;;;1.80;;
72209;SDS011;60113;48.762;12.302;2022-09-30T14:41:18;3.38;;;1.98;;
72209;SDS011;60113;48.762;12.302;2022-09-30T14:43:47;7.53;;;4.93;;
72209;SDS011;60113;48.762;12.302;2022-09-30T14:46:39;2.33;;;1.67;;
72209;SDS011;60113;48.762;12.302;2022-09-30T14:49:19;6.88;;;1.75;;
72209;SDS011;60113;48.762;12.302;2022-09-30T14:51:52;5.43;;;1.80;;
72209;SDS011;60113;48.762;12.302;2022-09-30T14:56:49;3.50;;;1.73;;
72209;SDS011;60113;48.762;12.302;2022-09-30T14:59:22;4.35;;;1.60;;
72209;SDS011;60113;48.762;12.302;2022-09-30T15:02:02;5.82;;;2.15;;
72209;SDS011;60113;48.762;12.302;2022-09-30T15:04:36;5.22;;;2.08;;
72209;SDS011;60113;48.762;12.302;2022-09-30T15:07:08;3.25;;;1.80;;
72209;SDS011;60113;48.762;12.302;2022-09-30T15:09:35;2.83;;;1.58;;
72209;SDS011;60113;48.762;12.302;2022-09-30T15:12:04;6.80;;;1.50;;
72209;SDS011;60113;48.762;12.302;2022-09-30T15:14:31;2.53;;;1.70;;
72209;SDS011;60113;48.762;12.302;2022-09-30T15:16:57;2.88;;;1.65;;
72209;SDS011;60113;48.762;12.302;2022-09-30T15:19:27;4.38;;;1.58;;
72209;SDS011;60113;48.762;12.302;2022-09-30T15:22:00;2.95;;;1.50;;
72209;SDS011;60113;48.762;12.302;2022-09-30T15:24:29;4.55;;;1.77;;
72209;SDS011;60113;48.762;12.302;2022-09-30T15:26:57;3.03;;;1.80;;
72209;SDS011;60113;48.762;12.302;2022-09-30T15:29:24;2.33;;;1.92;;
72209;SDS011;60113;48.762;12.302;2022-09-30T15:31:56;5.75;;;1.90;;
72209;SDS011;60113;48.762;12.302;2022-09-30T15:34:27;5.47;;;2.30;;
72209;SDS011;60113;48.762;12.302;2022-09-30T15:36:55;5.72;;;2.05;;
72209;SDS011;60113;48.762;12.302;2022-09-30T15:39:27;4.78;;;2.13;;
72209;SDS011;60113;48.762;12.302;2022-09-30T15:42:26;4.07;;;2.15;;
72209;SDS011;60113;48.762;12.302;2022-09-30T15:44:55;9.70;;;2.58;;
72209;SDS011;60113;48.762;12.302;2022-09-30T15:47:29;4.60;;;2.30;;
72209;SDS011;60113;48.762;12.302;2022-09-30T15:49:55;5.53;;;2.20;;
72209;SDS011;60113;48.762;12.302;2022-09-30T15:55:30;3.28;;;2.00;;
72209;SDS011;60113;48.762;12.302;2022-09-30T16:01:15;6.88;;;2.10;;
72209;SDS011;60113;48.762;12.302;2022-09-30T16:06:45;9.90;;;2.58;;
72209;SDS011;60113;48.762;12.302;2022-09-30T16:09:28;5.68;;;2.58;;
72209;SDS011;60113;48.762;12.302;2022-09-30T16:14:44;7.13;;;2.58;;
72209;SDS011;60113;48.762;12.302;2022-09-30T16:17:35;4.97;;;2.70;;
72209;SDS011;60113;48.762;12.302;2022-09-30T16:20:04;8.43;;;3.40;;
72209;SDS011;60113;48.762;12.302;2022-09-30T16:27:53;6.60;;;3.35;;
72209;SDS011;60113;48.762;12.302;2022-09-30T16:30:22;7.28;;;4.10;;
72209;SDS011;60113;48.762;12.302;2022-09-30T16:32:49;7.00;;;3.80;;
72209;SDS011;60113;48.762;12.302;2022-09-30T16:35:19;5.22;;;3.83;;
72209;SDS011;60113;48.762;12.302;2022-09-30T16:37:48;6.57;;;4.50;;
72209;SDS011;60113;48.762;12.302;2022-09-30T16:40:17;9.45;;;3.88;;
72209;SDS011;60113;48.762;12.302;2022-09-30T16:42:45;6.50;;;4.28;;
72209;SDS011;60113;48.762;12.302;2022-09-30T16:45:11;7.05;;;3.95;;
72209;SDS011;60113;48.762;12.302;2022-09-30T16:47:39;7.72;;;3.60;;
72209;SDS011;60113;48.762;12.302;2022-09-30T16:50:14;9.77;;;4.18;;
72209;SDS011;60113;48.762;12.302;2022-09-30T16:52:43;7.85;;;4.10;;
72209;SDS011;60113;48.762;12.302;2022-09-30T16:55:09;7.82;;;3.90;;
72209;SDS011;60113;48.762;12.302;2022-09-30T16:57:34;5.30;;;2.95;;
72209;SDS011;60113;48.762;12.302;2022-09-30T17:00:02;9.63;;;3.35;;
72209;SDS011;60113;48.762;12.302;2022-09-30T17:02:29;8.60;;;3.30;;
72209;SDS011;60113;48.762;12.302;2022-09-30T17:04:55;6.80;;;3.05;;
72209;SDS011;60113;48.762;12.302;2022-09-30T17:07:20;5.05;;;3.08;;
72209;SDS011;60113;48.762;12.302;2022-09-30T17:09:46;8.45;;;3.10;;
72209;SDS011;60113;48.762;12.302;2022-09-30T17:12:11;7.05;;;3.25;;
72209;SDS011;60113;48.762;12.302;2022-09-30T17:14:38;8.48;;;3.22;;
72209;SDS011;60113;48.762;12.302;2022-09-30T17:17:03;11.02;;;4.22;;
72209;SDS011;60113;48.762;12.302;2022-09-30T17:19:29;9.05;;;4.10;;
72209;SDS011;60113;48.762;12.302;2022-09-30T17:21:59;7.03;;;4.10;;
72209;SDS011;60113;48.762;12.302;2022-09-30T17:24:25;8.98;;;3.80;;
72209;SDS011;60113;48.762;12.302;2022-09-30T17:26:51;10.43;;;4.82;;
72209;SDS011;60113;48.762;12.302;2022-09-30T17:29:17;8.43;;;4.93;;
72209;SDS011;60113;48.762;12.302;2022-09-30T17:31:43;13.40;;;6.20;;
72209;SDS011;60113;48.762;12.302;2022-09-30T17:34:08;13.65;;;5.50;;
72209;SDS011;60113;48.762;12.302;2022-09-30T17:36:35;12.85;;;5.78;;
72209;SDS011;60113;48.762;12.302;2022-09-30T17:39:01;16.73;;;5.30;;
72209;SDS011;60113;48.762;12.302;2022-09-30T17:41:27;13.30;;;5.35;;
72209;SDS011;60113;48.762;12.302;2022-09-30T17:44:11;10.75;;;6.38;;
72209;SDS011;60113;48.762;12.302;2022-09-30T17:46:41;9.02;;;6.28;;
72209;SDS011;60113;48.762;12.302;2022-09-30T17:49:09;22.83;;;4.78;;
72209;SDS011;60113;48.762;12.302;2022-09-30T17:51:36;8.63;;;5.15;;
72209;SDS011;60113;48.762;12.302;2022-09-30T17:54:02;6.05;;;4.70;;
72209;SDS011;60113;48.762;12.302;2022-09-30T17:56:29;5.40;;;4.72;;
72209;SDS011;60113;48.762;12.302;2022-09-30T17:58:55;5.90;;;4.80;;
72209;SDS011;60113;48.762;12.302;2022-09-30T18:01:31;5.68;;;4.55;;
72209;SDS011;60113;48.762;12.302;2022-09-30T18:03:59;11.73;;;5.18;;
72209;SDS011;60113;48.762;12.302;2022-09-30T18:06:35;13.20;;;5.18;;
72209;SDS011;60113;48.762;12.302;2022-09-30T18:09:11;16.85;;;11.90;;
72209;SDS011;60113;48.762;12.302;2022-09-30T18:11:46;32.67;;;22.48;;
72209;SDS011;60113;48.762;12.302;2022-09-30T18:14:22;34.40;;;18.88;;
72209;SDS011;60113;48.762;12.302;2022-09-30T18:16:57;17.92;;;6.85;;